Time,TemperatureF,DewpointF,PressureIn,WindDirection,WindDirectionDegrees,WindSpeedMPH,WindSpeedGustMPH,Humidity,HourlyPrecipIn,Conditions,Clouds,dailyrainin,SolarRadiationWatts/m^2,SoftwareType,DateUTC
2013-04-19 00:04:00,63.2,57.0,29.75,SE,133,18.0,-999.0,79,-99.99,,,0.00,0,weatherlink.com 1.10,2013-04-19 04:04:00,
2013-04-19 00:19:00,63.4,57.0,29.75,ESE,115,12.0,-999.0,79,-99.99,,,0.00,0,weatherlink.com 1.10,2013-04-19 04:19:00,
2013-04-19 00:34:00,63.6,57.0,29.74,SE,138,10.0,-999.0,78,-99.99,,,0.00,0,weatherlink.com 1.10,2013-04-19 04:34:00,
2013-04-19 00:49:00,63.4,56.0,29.73,ESE,111,18.0,-999.0,78,-99.99,,,0.00,0,weatherlink.com 1.10,2013-04-19 04:49:00,
2013-04-19 01:04:00,63.2,57.0,29.73,ESE,117,15.0,-999.0,79,-99.99,,,0.00,0,weatherlink.com 1.10,2013-04-19 05:04:00,
2013-04-19 01:19:00,63.4,56.0,29.73,SE,126,12.0,-999.0,78,-99.99,,,0.00,0,weatherlink.com 1.10,2013-04-19 05:19:00,
2013-04-19 01:34:00,63.6,57.0,29.71,East,99,13.0,-999.0,78,-99.99,,,0.00,0,weatherlink.com 1.10,2013-04-19 05:34:00,
2013-04-19 01:49:00,63.8,57.0,29.71,ESE,107,13.0,-999.0,78,-99.99,,,0.00,0,weatherlink.com 1.10,2013-04-19 05:49:00,
2013-04-19 02:05:00,63.4,56.0,29.70,East,100,10.0,-999.0,78,-99.99,,,0.00,0,weatherlink.com 1.10,2013-04-19 06:05:00,
2013-04-19 02:20:00,63.7,57.0,29.69,SE,128,11.0,-999.0,78,-99.99,,,0.00,0,weatherlink.com 1.10,2013-04-19 06:20:00,
2013-04-19 02:35:00,63.5,57.0,29.69,ESE,111,13.0,-999.0,78,-99.99,,,0.00,0,weatherlink.com 1.10,2013-04-19 06:35:00,
2013-04-19 02:50:00,62.8,56.0,29.68,SE,143,24.0,-999.0,78,-99.99,,,0.00,0,weatherlink.com 1.10,2013-04-19 06:50:00,
2013-04-19 03:05:00,62.1,56.0,29.68,ESE,103,9.0,-999.0,79,-99.99,,,0.00,0,weatherlink.com 1.10,2013-04-19 07:05:00,
2013-04-19 03:20:00,62.2,56.0,29.67,ESE,120,16.0,-999.0,79,-99.99,,,0.00,0,weatherlink.com 1.10,2013-04-19 07:20:00,
2013-04-19 03:35:00,62.1,56.0,29.67,SE,146,13.0,-999.0,79,-99.99,,,0.00,0,weatherlink.com 1.10,2013-04-19 07:35:00,
2013-04-19 03:50:00,62.1,56.0,29.67,ESE,105,11.0,-999.0,79,-99.99,,,0.00,0,weatherlink.com 1.10,2013-04-19 07:50:00,
2013-04-19 04:05:00,62.1,56.0,29.66,ESE,111,11.0,-999.0,79,-99.99,,,0.00,0,weatherlink.com 1.10,2013-04-19 08:05:00,
2013-04-19 04:20:00,62.1,56.0,29.66,SE,132,14.0,-999.0,79,-99.99,,,0.00,0,weatherlink.com 1.10,2013-04-19 08:20:00,
2013-04-19 04:35:00,62.0,55.0,29.66,ESE,117,14.0,-999.0,79,-99.99,,,0.00,0,weatherlink.com 1.10,2013-04-19 08:35:00,
2013-04-19 04:50:00,62.0,55.0,29.66,SE,126,9.0,-999.0,79,-99.99,,,0.00,0,weatherlink.com 1.10,2013-04-19 08:50:00,
2013-04-19 05:05:00,62.2,55.0,29.65,SE,134,16.0,-999.0,78,-99.99,,,0.00,0,weatherlink.com 1.10,2013-04-19 09:05:00,
2013-04-19 05:20:00,62.2,55.0,29.66,ESE,120,9.0,-999.0,78,-99.99,,,0.00,0,weatherlink.com 1.10,2013-04-19 09:20:00,
2013-04-19 05:35:00,62.3,55.0,29.65,SE,134,28.0,-999.0,78,-99.99,,,0.00,0,weatherlink.com 1.10,2013-04-19 09:35:00,
2013-04-19 05:50:00,62.3,55.0,29.65,ESE,113,14.0,-999.0,78,-99.99,,,0.00,0,weatherlink.com 1.10,2013-04-19 09:50:00,
2013-04-19 06:05:00,62.7,56.0,29.64,SE,130,15.0,-999.0,78,-99.99,,,0.00,0,weatherlink.com 1.10,2013-04-19 10:05:00,
2013-04-19 06:20:00,63.0,56.0,29.65,SE,139,12.0,-999.0,78,-99.99,,,0.00,0,weatherlink.com 1.10,2013-04-19 10:20:00,
2013-04-19 06:35:00,63.0,56.0,29.64,ESE,120,14.0,-999.0,78,-99.99,,,0.00,9,weatherlink.com 1.10,2013-04-19 10:35:00,
2013-04-19 06:50:00,63.0,56.0,29.64,SE,127,14.0,-999.0,78,-99.99,,,0.00,18,weatherlink.com 1.10,2013-04-19 10:50:00,
2013-04-19 07:05:00,63.4,56.0,29.63,ESE,122,9.0,-999.0,78,-99.99,,,0.00,37,weatherlink.com 1.10,2013-04-19 11:05:00,
2013-04-19 07:20:00,63.6,56.0,29.63,ESE,109,15.0,-999.0,77,-99.99,,,0.00,69,weatherlink.com 1.10,2013-04-19 11:20:00,
2013-04-19 07:35:00,63.8,56.0,29.62,ESE,119,16.0,-999.0,77,-99.99,,,0.00,70,weatherlink.com 1.10,2013-04-19 11:35:00,
2013-04-19 07:50:00,63.9,57.0,29.61,ESE,111,14.0,-999.0,77,-99.99,,,0.00,93,weatherlink.com 1.10,2013-04-19 11:50:00,
2013-04-19 08:05:00,64.1,57.0,29.61,SSE,152,13.0,-999.0,77,-99.99,,,0.00,86,weatherlink.com 1.10,2013-04-19 12:05:00,
2013-04-19 08:20:00,64.1,56.0,29.60,SE,129,10.0,-999.0,76,-99.99,,,0.00,74,weatherlink.com 1.10,2013-04-19 12:20:00,
2013-04-19 08:35:00,64.4,57.0,29.59,SE,132,29.0,-999.0,76,-99.99,,,0.00,113,weatherlink.com 1.10,2013-04-19 12:35:00,
2013-04-19 08:50:00,64.1,56.0,29.59,SE,132,35.0,-999.0,76,-99.99,,,0.00,86,weatherlink.com 1.10,2013-04-19 12:50:00,
2013-04-19 09:05:00,64.3,57.0,29.58,ENE,69,11.0,-999.0,76,-99.99,,,0.00,155,weatherlink.com 1.10,2013-04-19 13:05:00,
2013-04-19 09:20:00,65.0,57.0,29.57,SE,126,19.0,-999.0,75,-99.99,,,0.00,207,weatherlink.com 1.10,2013-04-19 13:20:00,
2013-04-19 09:35:00,65.6,58.0,29.57,SE,129,21.0,-999.0,75,-99.99,,,0.00,116,weatherlink.com 1.10,2013-04-19 13:35:00,
2013-04-19 09:51:00,65.6,57.0,29.56,ESE,121,18.0,-999.0,74,-99.99,,,0.00,86,weatherlink.com 1.10,2013-04-19 13:51:00,
2013-04-19 10:06:00,65.6,57.0,29.55,ESE,117,15.0,-999.0,74,-99.99,,,0.00,88,weatherlink.com 1.10,2013-04-19 14:06:00,
2013-04-19 10:21:00,65.6,57.0,29.54,ESE,113,18.0,-999.0,74,-99.99,,,0.00,83,weatherlink.com 1.10,2013-04-19 14:21:00,
2013-04-19 10:36:00,66.0,57.0,29.52,SE,126,20.0,-999.0,73,-99.99,,,0.00,79,weatherlink.com 1.10,2013-04-19 14:36:00,
2013-04-19 10:51:00,66.6,57.0,29.54,SE,125,19.0,-999.0,72,-99.99,,,0.00,77,weatherlink.com 1.10,2013-04-19 14:51:00,
2013-04-19 11:06:00,67.0,57.0,29.52,ESE,112,18.0,-999.0,71,-99.99,,,0.00,120,weatherlink.com 1.10,2013-04-19 15:06:00,
2013-04-19 11:21:00,67.6,57.0,29.51,SE,131,26.0,-999.0,70,-99.99,,,0.00,134,weatherlink.com 1.10,2013-04-19 15:21:00,
2013-04-19 11:36:00,67.7,57.0,29.50,ESE,123,31.0,-999.0,69,-99.99,,,0.00,114,weatherlink.com 1.10,2013-04-19 15:36:00,
2013-04-19 11:51:00,67.6,57.0,29.49,ESE,116,20.0,-999.0,70,-99.99,,,0.00,111,weatherlink.com 1.10,2013-04-19 15:51:00,
2013-04-19 12:06:00,67.9,57.0,29.49,ESE,113,27.0,-999.0,69,-99.99,,,0.00,116,weatherlink.com 1.10,2013-04-19 16:06:00,
2013-04-19 12:21:00,67.8,57.0,29.47,ESE,120,14.0,-999.0,69,-99.99,,,0.00,121,weatherlink.com 1.10,2013-04-19 16:21:00,
2013-04-19 12:36:00,68.2,58.0,29.45,SE,146,20.0,-999.0,69,-99.99,,,0.00,185,weatherlink.com 1.10,2013-04-19 16:36:00,
2013-04-19 12:51:00,68.7,57.0,29.45,SSE,157,30.0,-999.0,67,-99.99,,,0.00,127,weatherlink.com 1.10,2013-04-19 16:51:00,
2013-04-19 13:06:00,68.9,57.0,29.44,SE,128,24.0,-999.0,67,-99.99,,,0.00,104,weatherlink.com 1.10,2013-04-19 17:06:00,
2013-04-19 13:21:00,69.3,58.0,29.44,SE,142,13.0,-999.0,67,-99.99,,,0.00,116,weatherlink.com 1.10,2013-04-19 17:21:00,
2013-04-19 13:36:00,68.4,58.0,29.45,ESE,113,15.0,-999.0,69,-99.99,,,0.00,179,weatherlink.com 1.10,2013-04-19 17:36:00,
2013-04-19 13:51:00,68.5,58.0,29.44,ESE,121,24.0,-999.0,70,-99.99,,,0.00,132,weatherlink.com 1.10,2013-04-19 17:51:00,
2013-04-19 14:06:00,67.7,58.0,29.40,ESE,119,24.0,-999.0,72,-99.99,,,0.00,144,weatherlink.com 1.10,2013-04-19 18:06:00,
2013-04-19 14:21:00,68.4,59.0,29.39,SE,139,16.0,-999.0,72,-99.99,,,0.00,679,weatherlink.com 1.10,2013-04-19 18:21:00,
2013-04-19 14:36:00,70.2,60.0,29.41,South,170,7.0,-999.0,69,-99.99,,,0.00,309,weatherlink.com 1.10,2013-04-19 18:36:00,
2013-04-19 14:51:00,70.4,59.0,29.38,SSE,149,21.0,-999.0,68,-99.99,,,0.00,301,weatherlink.com 1.10,2013-04-19 18:51:00,
2013-04-19 15:06:00,70.7,59.0,29.37,ESE,117,12.0,-999.0,67,-99.99,,,0.00,360,weatherlink.com 1.10,2013-04-19 19:06:00,
2013-04-19 15:21:00,72.1,60.0,29.37,SSE,154,15.0,-999.0,65,-99.99,,,0.00,366,weatherlink.com 1.10,2013-04-19 19:21:00,
2013-04-19 15:36:00,72.3,59.0,29.36,ESE,107,7.0,-999.0,64,-99.99,,,0.00,172,weatherlink.com 1.10,2013-04-19 19:36:00,
2013-04-19 15:51:00,72.2,60.0,29.38,WNW,286,11.0,-999.0,65,-99.99,,,0.00,19,weatherlink.com 1.10,2013-04-19 19:51:00,
2013-04-19 16:06:00,60.4,47.0,29.44,WSW,243,12.0,-999.0,62,-99.99,,,0.00,19,weatherlink.com 1.10,2013-04-19 20:06:00,
2013-04-19 16:22:00,54.0,45.0,29.46,West,259,13.0,-999.0,71,-99.99,,,0.00,25,weatherlink.com 1.10,2013-04-19 20:22:00,
2013-04-19 16:37:00,51.5,44.0,29.48,West,276,8.0,-999.0,75,-99.99,,,0.00,30,weatherlink.com 1.10,2013-04-19 20:37:00,
2013-04-19 16:52:00,50.1,44.0,29.49,WSW,244,19.0,-999.0,78,-99.99,,,0.00,47,weatherlink.com 1.10,2013-04-19 20:52:00,
2013-04-19 17:07:00,49.2,43.0,29.50,West,278,13.0,-999.0,78,-99.99,,,0.01,90,weatherlink.com 1.10,2013-04-19 21:07:00,
2013-04-19 17:22:00,47.3,41.0,29.51,West,278,11.0,-999.0,80,-99.99,,,0.02,37,weatherlink.com 1.10,2013-04-19 21:22:00,
2013-04-19 17:37:00,46.5,41.0,29.54,WSW,242,14.0,-999.0,80,-99.99,,,0.02,16,weatherlink.com 1.10,2013-04-19 21:37:00,
2013-04-19 17:52:00,45.8,40.0,29.55,West,280,19.0,-999.0,81,-99.99,,,0.03,14,weatherlink.com 1.10,2013-04-19 21:52:00,
2013-04-19 18:07:00,44.0,39.0,29.55,WNW,301,13.0,-999.0,83,-99.99,,,0.05,19,weatherlink.com 1.10,2013-04-19 22:07:00,
2013-04-19 18:22:00,43.2,39.0,29.56,WSW,240,11.0,-999.0,85,-99.99,,,0.07,16,weatherlink.com 1.10,2013-04-19 22:22:00,
2013-04-19 18:37:00,42.9,39.0,29.57,WSW,248,4.0,-999.0,85,-99.99,,,0.08,11,weatherlink.com 1.10,2013-04-19 22:37:00,
2013-04-19 18:52:00,43.0,39.0,29.59,SW,215,13.0,-999.0,84,-99.99,,,0.08,16,weatherlink.com 1.10,2013-04-19 22:52:00,
2013-04-19 19:07:00,43.2,38.0,29.61,West,259,13.0,-999.0,82,-99.99,,,0.08,9,weatherlink.com 1.10,2013-04-19 23:07:00,
2013-04-19 19:22:00,43.4,38.0,29.62,SW,215,10.0,-999.0,80,-99.99,,,0.08,0,weatherlink.com 1.10,2013-04-19 23:22:00,
2013-04-19 19:37:00,43.5,37.0,29.63,WSW,250,5.0,-999.0,78,-99.99,,,0.08,0,weatherlink.com 1.10,2013-04-19 23:37:00,
2013-04-19 19:52:00,43.5,37.0,29.64,WSW,254,13.0,-999.0,77,-99.99,,,0.08,0,weatherlink.com 1.10,2013-04-19 23:52:00,
2013-04-19 20:07:00,43.6,36.0,29.65,SW,223,9.0,-999.0,75,-99.99,,,0.08,0,weatherlink.com 1.10,2013-04-20 00:07:00,
2013-04-19 20:22:00,43.8,36.0,29.67,West,272,4.0,-999.0,74,-99.99,,,0.08,0,weatherlink.com 1.10,2013-04-20 00:22:00,
2013-04-19 20:37:00,43.8,36.0,29.68,WSW,249,7.0,-999.0,73,-99.99,,,0.08,0,weatherlink.com 1.10,2013-04-20 00:37:00,
2013-04-19 20:52:00,43.8,35.0,29.69,West,269,11.0,-999.0,72,-99.99,,,0.08,0,weatherlink.com 1.10,2013-04-20 00:52:00,
2013-04-19 21:07:00,43.7,35.0,29.71,SSW,206,1.0,-999.0,71,-99.99,,,0.08,0,weatherlink.com 1.10,2013-04-20 01:07:00,
2013-04-19 21:22:00,43.6,35.0,29.71,WSW,250,9.0,-999.0,71,-99.99,,,0.08,0,weatherlink.com 1.10,2013-04-20 01:22:00,
2013-04-19 21:37:00,43.6,34.0,29.71,WSW,245,12.0,-999.0,70,-99.99,,,0.08,0,weatherlink.com 1.10,2013-04-20 01:37:00,
2013-04-19 21:52:00,43.6,34.0,29.71,SW,221,8.0,-999.0,69,-99.99,,,0.08,0,weatherlink.com 1.10,2013-04-20 01:52:00,
2013-04-19 22:07:00,43.4,33.0,29.71,West,271,7.0,-999.0,68,-99.99,,,0.08,0,weatherlink.com 1.10,2013-04-20 02:07:00,
2013-04-19 22:22:00,43.3,33.0,29.73,WSW,252,13.0,-999.0,68,-99.99,,,0.08,0,weatherlink.com 1.10,2013-04-20 02:22:00,
2013-04-19 22:37:00,43.1,33.0,29.74,WSW,256,8.0,-999.0,68,-99.99,,,0.08,0,weatherlink.com 1.10,2013-04-20 02:37:00,
2013-04-19 22:52:00,43.2,32.0,29.74,SW,227,15.0,-999.0,66,-99.99,,,0.08,0,weatherlink.com 1.10,2013-04-20 02:52:00,
2013-04-19 23:07:00,43.3,32.0,29.75,South,190,5.0,-999.0,65,-99.99,,,0.08,0,weatherlink.com 1.10,2013-04-20 03:07:00,
2013-04-19 23:22:00,43.4,32.0,29.76,West,277,2.0,-999.0,65,-99.99,,,0.08,0,weatherlink.com 1.10,2013-04-20 03:22:00,
2013-04-19 23:37:00,43.3,32.0,29.75,SSW,201,2.0,-999.0,65,-99.99,,,0.08,0,weatherlink.com 1.10,2013-04-20 03:37:00,
2013-04-19 23:52:00,43.3,32.0,29.75,SSW,204,10.0,-999.0,65,-99.99,,,0.08,0,weatherlink.com 1.10,2013-04-20 03:52:00,